Glacier Park International Airport
KGPI : now visible

Airfield :











YOU CAN JOIN US ON...

 
LOGIN :

Register | Disclaimer

   EN    FR    IT 

 









Legend :    VFR   Marginal VFR   IFR   Intensive IFR   Very Intensive IFR
Visi :
Ceiling :
>= 8 km
>= 3000ft
5 to 8 km
1000 to 3000 ft
1500m to 5 km
500 to 1000 ft
800 to 1500m
200 to 500 ft
< 800m
< 200 ft
Symbols :   Thunderstorms  Fog  Heavy snow  Heavy precipitations  Wind > 20 kt






- Airport Elevation : 2977 ft
- IATA code : FCA


KGPI - Glacier Park International

CURRENT METAR :
  • 260455Z 17005KT 10SM BKN080 OVC095 09/01 A2980 RMK AO2 SLP096 T00890006

EXPIRED METARs :
  • 260355Z 23008KT 10SM CLR 09/M01 A2978 RMK AO2 SLP090 T00941006
  • 260255Z 24011G20KT 10SM OVC080 12/M01 A2976 RMK AO2 SLP078 T01221006 53007
  • 260155Z 24011G18KT 10SM CLR 13/01 A2975 RMK AO2 SLP074 T01330006
  • 260055Z 01011KT 10SM FEW065 FEW075 13/07 A2974 RMK AO2 PK WND 22027/0027 WSHFT 0007 SLP074 T01330067

TAF KGPI
Valid from the 26 at 00:00 until the 27 at 00:00 UTC


252320Z 2600/2624 14010G20KT P6SM -SHRA OVC050
FM260300 18005KT P6SM VCSH BKN050 OVC080
FM261900 20012G20KT P6SM BKN050
KZLC FIR / North America



MET'MAP, your aeronautical weather chart ! - Copyright ORBIFLY December 2007 - Disclaimer

ORBIFLY MET'MAP TEAM :

Programming & Development : Alexandra Zaïnal
Original concept : Baudouin d'Aumeries
Technical & hardware support : Manuel Goepfert
Assistance : Marc-Olivier Méhu




SOURCES & CREDITS :

   NOAA       Earth
Advisory